sensor_id;sensor_type;location;lat;lon;timestamp;pressure;altitude;pressure_sealevel;temperature;humidity
5777;BME280;2914;42.668;23.346;2023-02-02T00:01:58;94571.89;;;5.53;57.38
5777;BME280;2914;42.668;23.346;2023-02-02T00:04:30;94574.99;;;5.53;57.56
5777;BME280;2914;42.668;23.346;2023-02-02T00:07:00;94578.66;;;5.50;57.36
5777;BME280;2914;42.668;23.346;2023-02-02T00:09:32;94581.65;;;5.51;57.91
5777;BME280;2914;42.668;23.346;2023-02-02T00:12:01;94578.41;;;5.48;58.43
5777;BME280;2914;42.668;23.346;2023-02-02T00:14:30;94571.64;;;5.51;58.26
5777;BME280;2914;42.668;23.346;2023-02-02T00:16:59;94563.45;;;5.50;58.17
5777;BME280;2914;42.668;23.346;2023-02-02T00:19:29;94564.64;;;5.51;58.16
5777;BME280;2914;42.668;23.346;2023-02-02T00:21:59;94571.30;;;5.50;57.94
5777;BME280;2914;42.668;23.346;2023-02-02T00:24:28;94568.82;;;5.54;57.53
5777;BME280;2914;42.668;23.346;2023-02-02T00:26:58;94571.97;;;5.65;57.60
5777;BME280;2914;42.668;23.346;2023-02-02T00:29:29;94575.80;;;5.72;57.55
5777;BME280;2914;42.668;23.346;2023-02-02T00:31:58;94570.80;;;5.69;57.28
5777;BME280;2914;42.668;23.346;2023-02-02T00:34:28;94576.21;;;5.60;57.23
5777;BME280;2914;42.668;23.346;2023-02-02T00:36:57;94581.81;;;5.61;57.37
5777;BME280;2914;42.668;23.346;2023-02-02T00:39:26;94587.25;;;5.52;57.60
5777;BME280;2914;42.668;23.346;2023-02-02T00:41:56;94588.08;;;5.53;57.76
5777;BME280;2914;42.668;23.346;2023-02-02T00:44:25;94590.92;;;5.50;58.24
5777;BME280;2914;42.668;23.346;2023-02-02T00:47:12;94598.66;;;5.51;58.26
5777;BME280;2914;42.668;23.346;2023-02-02T00:49:41;94600.13;;;5.42;58.79
5777;BME280;2914;42.668;23.346;2023-02-02T00:52:10;94595.19;;;5.51;58.63
5777;BME280;2914;42.668;23.346;2023-02-02T00:54:40;94598.23;;;5.39;58.69
5777;BME280;2914;42.668;23.346;2023-02-02T00:57:12;94592.54;;;5.45;59.04
5777;BME280;2914;42.668;23.346;2023-02-02T00:59:41;94601.67;;;5.39;59.10
5777;BME280;2914;42.668;23.346;2023-02-02T01:02:11;94586.54;;;5.32;60.52
5777;BME280;2914;42.668;23.346;2023-02-02T01:04:41;94592.25;;;5.37;61.03
5777;BME280;2914;42.668;23.346;2023-02-02T01:07:10;94575.78;;;5.23;62.50
5777;BME280;2914;42.668;23.346;2023-02-02T01:09:39;94573.17;;;5.23;63.26
5777;BME280;2914;42.668;23.346;2023-02-02T01:12:08;94565.47;;;5.28;63.55
5777;BME280;2914;42.668;23.346;2023-02-02T01:14:38;94566.41;;;5.26;64.24
5777;BME280;2914;42.668;23.346;2023-02-02T01:17:07;94560.44;;;5.24;64.73
5777;BME280;2914;42.668;23.346;2023-02-02T01:19:36;94564.89;;;5.11;65.90
5777;BME280;2914;42.668;23.346;2023-02-02T01:22:06;94566.15;;;5.24;65.96
5777;BME280;2914;42.668;23.346;2023-02-02T01:24:35;94555.01;;;5.28;65.91
5777;BME280;2914;42.668;23.346;2023-02-02T01:27:04;94557.17;;;5.34;65.96
5777;BME280;2914;42.668;23.346;2023-02-02T01:29:33;94560.04;;;5.36;66.21
5777;BME280;2914;42.668;23.346;2023-02-02T01:32:02;94556.00;;;5.38;65.92
5777;BME280;2914;42.668;23.346;2023-02-02T01:34:32;94549.52;;;5.25;66.70
5777;BME280;2914;42.668;23.346;2023-02-02T01:37:01;94543.27;;;5.33;65.62
5777;BME280;2914;42.668;23.346;2023-02-02T01:39:31;94543.37;;;5.32;65.12
5777;BME280;2914;42.668;23.346;2023-02-02T01:42:00;94538.48;;;5.33;65.20
5777;BME280;2914;42.668;23.346;2023-02-02T01:47:49;94532.69;;;5.35;64.66
5777;BME280;2914;42.668;23.346;2023-02-02T01:50:22;94544.25;;;5.43;64.65
5777;BME280;2914;42.668;23.346;2023-02-02T01:52:52;94542.13;;;5.24;65.66
5777;BME280;2914;42.668;23.346;2023-02-02T01:55:25;94529.88;;;5.19;66.06
5777;BME280;2914;42.668;23.346;2023-02-02T01:57:56;94528.70;;;5.05;66.82
5777;BME280;2914;42.668;23.346;2023-02-02T02:00:26;94531.34;;;5.10;66.97
5777;BME280;2914;42.668;23.346;2023-02-02T02:02:57;94527.17;;;5.08;66.98
5777;BME280;2914;42.668;23.346;2023-02-02T02:05:30;94518.73;;;5.04;67.31
5777;BME280;2914;42.668;23.346;2023-02-02T02:08:06;94519.18;;;5.04;67.59
5777;BME280;2914;42.668;23.346;2023-02-02T02:10:36;94514.30;;;4.99;68.06
5777;BME280;2914;42.668;23.346;2023-02-02T02:13:05;94514.11;;;4.89;67.70
5777;BME280;2914;42.668;23.346;2023-02-02T02:15:37;94517.81;;;4.92;67.76
5777;BME280;2914;42.668;23.346;2023-02-02T02:18:42;94516.13;;;4.91;68.04
5777;BME280;2914;42.668;23.346;2023-02-02T02:33:44;94523.48;;;4.55;70.15
5777;BME280;2914;42.668;23.346;2023-02-02T02:36:18;94522.14;;;4.49;70.30
5777;BME280;2914;42.668;23.346;2023-02-02T02:38:51;94524.46;;;4.59;69.68
5777;BME280;2914;42.668;23.346;2023-02-02T02:41:22;94528.53;;;4.64;69.46
5777;BME280;2914;42.668;23.346;2023-02-02T02:43:54;94515.91;;;4.57;69.79
5777;BME280;2914;42.668;23.346;2023-02-02T02:46:24;94521.17;;;4.63;69.87
5777;BME280;2914;42.668;23.346;2023-02-02T02:48:56;94518.83;;;4.66;69.99
5777;BME280;2914;42.668;23.346;2023-02-02T02:51:44;94526.44;;;4.69;70.06
5777;BME280;2914;42.668;23.346;2023-02-02T02:54:16;94523.72;;;4.70;69.46
5777;BME280;2914;42.668;23.346;2023-02-02T02:56:54;94513.45;;;4.62;69.83
5777;BME280;2914;42.668;23.346;2023-02-02T02:59:31;94515.61;;;4.49;70.67
5777;BME280;2914;42.668;23.346;2023-02-02T03:02:05;94512.77;;;4.52;70.57
5777;BME280;2914;42.668;23.346;2023-02-02T03:04:37;94512.77;;;4.52;70.57
5777;BME280;2914;42.668;23.346;2023-02-02T03:07:09;94523.34;;;4.51;70.46
5777;BME280;2914;42.668;23.346;2023-02-02T03:09:41;94523.34;;;4.51;70.46
5777;BME280;2914;42.668;23.346;2023-02-02T03:12:12;94506.02;;;4.55;70.12
5777;BME280;2914;42.668;23.346;2023-02-02T03:14:41;94518.41;;;4.46;70.24
5777;BME280;2914;42.668;23.346;2023-02-02T03:17:10;94514.75;;;4.49;69.96
5777;BME280;2914;42.668;23.346;2023-02-02T03:19:39;94508.55;;;4.44;69.68
5777;BME280;2914;42.668;23.346;2023-02-02T03:22:08;94516.80;;;4.51;69.21
5777;BME280;2914;42.668;23.346;2023-02-02T03:24:37;94511.20;;;4.50;69.31
5777;BME280;2914;42.668;23.346;2023-02-02T03:27:06;94511.20;;;4.50;69.31
5777;BME280;2914;42.668;23.346;2023-02-02T03:29:36;94505.66;;;4.54;68.92
5777;BME280;2914;42.668;23.346;2023-02-02T03:32:05;94515.61;;;4.49;68.71
5777;BME280;2914;42.668;23.346;2023-02-02T03:34:35;94503.67;;;4.58;68.62
5777;BME280;2914;42.668;23.346;2023-02-02T03:37:04;94512.52;;;4.50;68.84
5777;BME280;2914;42.668;23.346;2023-02-02T03:39:33;94517.55;;;4.58;68.94
5777;BME280;2914;42.668;23.346;2023-02-02T03:42:03;94509.98;;;4.61;69.09
5777;BME280;2914;42.668;23.346;2023-02-02T03:44:33;94515.58;;;4.62;68.90
5777;BME280;2914;42.668;23.346;2023-02-02T03:47:02;94517.45;;;4.60;69.27
5777;BME280;2914;42.668;23.346;2023-02-02T03:49:31;94513.00;;;4.68;68.95
5777;BME280;2914;42.668;23.346;2023-02-02T03:52:00;94517.52;;;4.66;69.01
5777;BME280;2914;42.668;23.346;2023-02-02T03:54:31;94515.62;;;4.68;69.09
5777;BME280;2914;42.668;23.346;2023-02-02T03:57:00;94521.81;;;4.72;68.70
5777;BME280;2914;42.668;23.346;2023-02-02T03:59:30;94522.33;;;4.46;69.62
5777;BME280;2914;42.668;23.346;2023-02-02T04:01:59;94528.92;;;4.39;70.54
5777;BME280;2914;42.668;23.346;2023-02-02T04:04:28;94520.52;;;4.28;71.26
5777;BME280;2914;42.668;23.346;2023-02-02T04:06:58;94533.77;;;4.38;71.47
5777;BME280;2914;42.668;23.346;2023-02-02T04:09:28;94530.02;;;4.29;72.12
5777;BME280;2914;42.668;23.346;2023-02-02T04:11:57;94524.22;;;4.18;72.95
5777;BME280;2914;42.668;23.346;2023-02-02T04:14:26;94529.07;;;4.17;73.36
5777;BME280;2914;42.668;23.346;2023-02-02T04:16:55;94526.62;;;4.21;73.68
5777;BME280;2914;42.668;23.346;2023-02-02T04:19:24;94525.16;;;4.17;75.25
5777;BME280;2914;42.668;23.346;2023-02-02T04:21:54;94524.73;;;4.11;74.66
5777;BME280;2914;42.668;23.346;2023-02-02T04:24:24;94528.56;;;4.12;74.29
5777;BME280;2914;42.668;23.346;2023-02-02T04:26:55;94531.02;;;4.08;74.75
5777;BME280;2914;42.668;23.346;2023-02-02T04:29:24;94538.64;;;4.11;74.63
5777;BME280;2914;42.668;23.346;2023-02-02T04:31:53;94536.23;;;4.21;74.18
5777;BME280;2914;42.668;23.346;2023-02-02T04:34:22;94541.88;;;4.28;73.47
5777;BME280;2914;42.668;23.346;2023-02-02T04:36:51;94536.45;;;4.18;73.79
5777;BME280;2914;42.668;23.346;2023-02-02T04:39:21;94536.39;;;4.25;73.55
5777;BME280;2914;42.668;23.346;2023-02-02T04:41:51;94521.44;;;4.27;73.00
5777;BME280;2914;42.668;23.346;2023-02-02T04:44:20;94525.53;;;4.18;73.41
5777;BME280;2914;42.668;23.346;2023-02-02T04:49:27;94541.25;;;4.11;73.84
5777;BME280;2914;42.668;23.346;2023-02-02T04:51:59;94548.17;;;4.05;73.68
5777;BME280;2914;42.668;23.346;2023-02-02T04:54:28;94545.40;;;4.01;73.50
5777;BME280;2914;42.668;23.346;2023-02-02T04:56:57;94543.53;;;4.03;73.64
5777;BME280;2914;42.668;23.346;2023-02-02T04:59:28;94540.39;;;4.11;73.13
5777;BME280;2914;42.668;23.346;2023-02-02T05:01:59;94548.81;;;4.08;73.30
5777;BME280;2914;42.668;23.346;2023-02-02T05:04:28;94540.55;;;4.15;72.70
5777;BME280;2914;42.668;23.346;2023-02-02T05:06:58;94552.14;;;4.11;72.59
5777;BME280;2914;42.668;23.346;2023-02-02T05:09:28;94546.97;;;4.03;72.90
5777;BME280;2914;42.668;23.346;2023-02-02T05:11:57;94545.45;;;4.06;72.66
5777;BME280;2914;42.668;23.346;2023-02-02T05:17:03;94538.63;;;4.24;71.52
5777;BME280;2914;42.668;23.346;2023-02-02T05:19:32;94544.34;;;4.23;70.92
5777;BME280;2914;42.668;23.346;2023-02-02T05:22:01;94544.89;;;4.21;70.25
5777;BME280;2914;42.668;23.346;2023-02-02T05:24:30;94533.30;;;4.25;70.43
5777;BME280;2914;42.668;23.346;2023-02-02T05:27:00;94537.44;;;4.22;70.18
5777;BME280;2914;42.668;23.346;2023-02-02T05:29:29;94534.93;;;4.21;69.72
5777;BME280;2914;42.668;23.346;2023-02-02T05:31:58;94532.05;;;4.18;69.58
5777;BME280;2914;42.668;23.346;2023-02-02T05:34:27;94531.28;;;4.23;68.92
5777;BME280;2914;42.668;23.346;2023-02-02T05:36:56;94546.52;;;4.30;69.17
5777;BME280;2914;42.668;23.346;2023-02-02T05:39:26;94544.02;;;4.15;69.88
5777;BME280;2914;42.668;23.346;2023-02-02T05:41:55;94556.20;;;3.89;72.40
5777;BME280;2914;42.668;23.346;2023-02-02T05:44:24;94543.75;;;3.60;74.48
5777;BME280;2914;42.668;23.346;2023-02-02T05:46:53;94549.17;;;3.56;74.89
5777;BME280;2914;42.668;23.346;2023-02-02T05:49:22;94557.14;;;3.40;75.48
5777;BME280;2914;42.668;23.346;2023-02-02T05:51:52;94552.78;;;3.41;73.17
5777;BME280;2914;42.668;23.346;2023-02-02T05:54:23;94549.34;;;3.61;87.16
5777;BME280;2914;42.668;23.346;2023-02-02T05:56:53;94551.59;;;4.13;98.41
5777;BME280;2914;42.668;23.346;2023-02-02T05:59:23;94551.74;;;4.04;78.35
5777;BME280;2914;42.668;23.346;2023-02-02T06:01:52;94564.91;;;4.15;75.68
5777;BME280;2914;42.668;23.346;2023-02-02T06:04:21;94563.44;;;4.24;74.20
5777;BME280;2914;42.668;23.346;2023-02-02T06:06:51;94557.36;;;4.11;73.52
5777;BME280;2914;42.668;23.346;2023-02-02T06:09:20;94553.39;;;4.05;74.00
5777;BME280;2914;42.668;23.346;2023-02-02T06:11:50;94564.47;;;3.96;74.73
5777;BME280;2914;42.668;23.346;2023-02-02T06:14:19;94562.06;;;3.72;75.77
5777;BME280;2914;42.668;23.346;2023-02-02T06:16:48;94555.81;;;3.75;76.04
5777;BME280;2914;42.668;23.346;2023-02-02T06:19:18;94558.95;;;3.60;75.96
5777;BME280;2914;42.668;23.346;2023-02-02T06:21:47;94566.06;;;3.51;76.67
5777;BME280;2914;42.668;23.346;2023-02-02T06:27:14;94576.78;;;4.06;76.40
5777;BME280;2914;42.668;23.346;2023-02-02T06:29:43;94573.51;;;4.23;74.98
5777;BME280;2914;42.668;23.346;2023-02-02T06:32:12;94578.22;;;4.44;72.63
5777;BME280;2914;42.668;23.346;2023-02-02T06:34:41;94602.98;;;4.25;72.28
5777;BME280;2914;42.668;23.346;2023-02-02T06:37:10;94588.72;;;4.23;72.58
5777;BME280;2914;42.668;23.346;2023-02-02T06:39:39;94592.31;;;4.15;72.74
5777;BME280;2914;42.668;23.346;2023-02-02T06:42:08;94594.33;;;4.04;73.54
5777;BME280;2914;42.668;23.346;2023-02-02T06:44:39;94603.42;;;4.12;73.50
5777;BME280;2914;42.668;23.346;2023-02-02T06:47:15;94610.72;;;4.06;73.80
5777;BME280;2914;42.668;23.346;2023-02-02T06:49:47;94607.70;;;4.00;74.30
5777;BME280;2914;42.668;23.346;2023-02-02T06:52:16;94602.67;;;3.49;76.61
5777;BME280;2914;42.668;23.346;2023-02-02T06:54:45;94599.79;;;3.12;79.86
5777;BME280;2914;42.668;23.346;2023-02-02T06:57:14;94607.72;;;3.45;78.65
5777;BME280;2914;42.668;23.346;2023-02-02T06:59:43;94599.70;;;3.07;79.98
5777;BME280;2914;42.668;23.346;2023-02-02T07:02:14;94609.12;;;3.36;79.07
5777;BME280;2914;42.668;23.346;2023-02-02T07:04:43;94626.55;;;3.36;78.62
5777;BME280;2914;42.668;23.346;2023-02-02T07:07:13;94615.44;;;3.47;78.16
5777;BME280;2914;42.668;23.346;2023-02-02T07:09:43;94610.09;;;3.63;77.25
5777;BME280;2914;42.668;23.346;2023-02-02T07:12:12;94618.05;;;3.47;77.04
5777;BME280;2914;42.668;23.346;2023-02-02T07:14:41;94621.22;;;3.72;76.66
5777;BME280;2914;42.668;23.346;2023-02-02T07:17:12;94612.50;;;3.24;78.36
5777;BME280;2914;42.668;23.346;2023-02-02T07:19:41;94611.05;;;3.47;78.25
5777;BME280;2914;42.668;23.346;2023-02-02T07:22:17;94622.34;;;3.68;77.75
5777;BME280;2914;42.668;23.346;2023-02-02T07:24:46;94612.87;;;3.60;77.83
5777;BME280;2914;42.668;23.346;2023-02-02T07:27:17;94613.01;;;3.78;77.25
5777;BME280;2914;42.668;23.346;2023-02-02T07:29:46;94618.61;;;3.72;77.62
5777;BME280;2914;42.668;23.346;2023-02-02T07:32:16;94616.06;;;3.58;77.75
5777;BME280;2914;42.668;23.346;2023-02-02T07:34:45;94624.86;;;3.69;77.65
5777;BME280;2914;42.668;23.346;2023-02-02T07:37:16;94627.53;;;3.82;77.37
5777;BME280;2914;42.668;23.346;2023-02-02T07:39:45;94643.19;;;3.82;77.43
5777;BME280;2914;42.668;23.346;2023-02-02T07:42:15;94637.11;;;3.82;77.64
5777;BME280;2914;42.668;23.346;2023-02-02T07:44:45;94629.08;;;3.65;78.43
5777;BME280;2914;42.668;23.346;2023-02-02T07:47:14;94622.44;;;3.94;78.24
5777;BME280;2914;42.668;23.346;2023-02-02T07:52:30;94607.66;;;4.07;76.58
5777;BME280;2914;42.668;23.346;2023-02-02T07:54:58;94603.69;;;3.94;76.61
5777;BME280;2914;42.668;23.346;2023-02-02T07:57:30;94604.11;;;3.88;77.60
5777;BME280;2914;42.668;23.346;2023-02-02T08:00:01;94591.61;;;3.86;77.30
5777;BME280;2914;42.668;23.346;2023-02-02T08:02:30;94593.68;;;4.21;77.30
5777;BME280;2914;42.668;23.346;2023-02-02T08:05:01;94591.13;;;4.65;76.33
5777;BME280;2914;42.668;23.346;2023-02-02T08:07:30;94592.20;;;5.07;74.53
5777;BME280;2914;42.668;23.346;2023-02-02T08:10:03;94583.19;;;5.48;72.92
5777;BME280;2914;42.668;23.346;2023-02-02T08:12:33;94581.72;;;5.92;71.10
5777;BME280;2914;42.668;23.346;2023-02-02T08:15:03;94581.76;;;6.34;69.41
5777;BME280;2914;42.668;23.346;2023-02-02T08:17:35;94585.02;;;6.54;66.11
5777;BME280;2914;42.668;23.346;2023-02-02T08:20:07;94584.56;;;6.77;64.54
5777;BME280;2914;42.668;23.346;2023-02-02T08:22:39;94581.81;;;6.96;63.14
5777;BME280;2914;42.668;23.346;2023-02-02T08:25:12;94574.32;;;6.91;63.84
5777;BME280;2914;42.668;23.346;2023-02-02T08:27:45;94580.27;;;6.88;64.05
5777;BME280;2914;42.668;23.346;2023-02-02T08:30:14;94576.09;;;6.85;64.53
5777;BME280;2914;42.668;23.346;2023-02-02T08:32:43;94572.86;;;6.65;64.61
5777;BME280;2914;42.668;23.346;2023-02-02T08:35:12;94557.98;;;6.59;67.41
5777;BME280;2914;42.668;23.346;2023-02-02T08:37:42;94558.56;;;6.46;67.18
5777;BME280;2914;42.668;23.346;2023-02-02T08:40:13;94566.66;;;6.43;66.09
5777;BME280;2914;42.668;23.346;2023-02-02T08:42:44;94557.55;;;6.24;65.16
5777;BME280;2914;42.668;23.346;2023-02-02T08:45:15;94557.05;;;6.14;64.30
5777;BME280;2914;42.668;23.346;2023-02-02T08:47:45;94554.23;;;6.22;64.83
5777;BME280;2914;42.668;23.346;2023-02-02T08:52:51;94543.15;;;6.24;65.25
5777;BME280;2914;42.668;23.346;2023-02-02T08:55:20;94543.15;;;6.24;65.25
5777;BME280;2914;42.668;23.346;2023-02-02T08:57:49;94543.66;;;7.03;72.25
5777;BME280;2914;42.668;23.346;2023-02-02T09:00:20;94543.66;;;7.03;72.25
5777;BME280;2914;42.668;23.346;2023-02-02T09:02:51;94541.03;;;7.03;67.03
5777;BME280;2914;42.668;23.346;2023-02-02T09:05:20;94541.39;;;7.10;64.09
5777;BME280;2914;42.668;23.346;2023-02-02T09:07:49;94551.18;;;7.08;62.47
5777;BME280;2914;42.668;23.346;2023-02-02T09:10:18;94556.67;;;7.10;62.95
5777;BME280;2914;42.668;23.346;2023-02-02T09:12:47;94552.14;;;6.95;61.30
5777;BME280;2914;42.668;23.346;2023-02-02T09:15:16;94550.48;;;6.77;61.12
5777;BME280;2914;42.668;23.346;2023-02-02T09:17:45;94546.64;;;6.36;63.29
5777;BME280;2914;42.668;23.346;2023-02-02T09:22:54;94535.98;;;6.21;68.00
5777;BME280;2914;42.668;23.346;2023-02-02T09:25:24;94544.09;;;6.18;68.04
5777;BME280;2914;42.668;23.346;2023-02-02T09:27:54;94532.41;;;6.10;68.40
5777;BME280;2914;42.668;23.346;2023-02-02T09:30:23;94530.28;;;6.16;68.86
5777;BME280;2914;42.668;23.346;2023-02-02T09:32:52;94531.11;;;6.16;68.65
5777;BME280;2914;42.668;23.346;2023-02-02T09:35:21;94538.27;;;6.20;68.69
5777;BME280;2914;42.668;23.346;2023-02-02T09:37:50;94526.23;;;5.87;69.72
5777;BME280;2914;42.668;23.346;2023-02-02T09:40:19;94516.27;;;5.92;68.91
5777;BME280;2914;42.668;23.346;2023-02-02T09:43:00;94530.72;;;6.04;68.69
5777;BME280;2914;42.668;23.346;2023-02-02T09:45:35;94522.80;;;6.22;68.58
5777;BME280;2914;42.668;23.346;2023-02-02T09:48:12;94509.20;;;6.11;67.78
5777;BME280;2914;42.668;23.346;2023-02-02T09:50:45;94513.14;;;6.23;67.54
5777;BME280;2914;42.668;23.346;2023-02-02T09:53:21;94526.25;;;6.34;66.55
5777;BME280;2914;42.668;23.346;2023-02-02T09:55:52;94520.69;;;6.44;66.35
5777;BME280;2914;42.668;23.346;2023-02-02T09:58:25;94500.05;;;6.23;67.89
5777;BME280;2914;42.668;23.346;2023-02-02T10:00:59;94491.83;;;6.27;66.99
5777;BME280;2914;42.668;23.346;2023-02-02T10:03:32;94504.84;;;6.35;66.75
5777;BME280;2914;42.668;23.346;2023-02-02T10:06:05;94501.39;;;6.51;65.51
5777;BME280;2914;42.668;23.346;2023-02-02T10:08:37;94505.32;;;6.62;63.89
5777;BME280;2914;42.668;23.346;2023-02-02T10:11:26;94506.98;;;6.81;65.77
5777;BME280;2914;42.668;23.346;2023-02-02T10:16:38;94495.42;;;6.83;66.19
5777;BME280;2914;42.668;23.346;2023-02-02T10:19:11;94483.85;;;6.91;63.19
5777;BME280;2914;42.668;23.346;2023-02-02T10:21:45;94478.92;;;7.09;63.08
5777;BME280;2914;42.668;23.346;2023-02-02T10:24:17;94476.02;;;7.29;61.76
5777;BME280;2914;42.668;23.346;2023-02-02T10:26:49;94468.31;;;7.49;59.67
5777;BME280;2914;42.668;23.346;2023-02-02T10:32:05;94459.59;;;7.54;61.75
5777;BME280;2914;42.668;23.346;2023-02-02T10:34:36;94479.61;;;7.55;59.93
5777;BME280;2914;42.668;23.346;2023-02-02T10:37:16;94456.19;;;7.63;58.65
5777;BME280;2914;42.668;23.346;2023-02-02T10:39:52;94456.45;;;7.81;57.18
5777;BME280;2914;42.668;23.346;2023-02-02T10:42:27;94448.85;;;8.00;55.02
5777;BME280;2914;42.668;23.346;2023-02-02T10:44:58;94434.19;;;8.12;54.64
5777;BME280;2914;42.668;23.346;2023-02-02T10:47:30;94442.39;;;8.19;53.62
5777;BME280;2914;42.668;23.346;2023-02-02T10:50:14;94419.47;;;8.31;53.26
5777;BME280;2914;42.668;23.346;2023-02-02T10:52:42;94419.47;;;8.31;53.26
5777;BME280;2914;42.668;23.346;2023-02-02T10:55:18;94403.06;;;8.23;53.66
5777;BME280;2914;42.668;23.346;2023-02-02T10:57:56;94399.58;;;8.23;52.89
5777;BME280;2914;42.668;23.346;2023-02-02T11:00:26;94396.17;;;8.32;51.84
5777;BME280;2914;42.668;23.346;2023-02-02T11:02:56;94391.45;;;8.41;51.79
5777;BME280;2914;42.668;23.346;2023-02-02T11:05:30;94391.45;;;8.41;51.79
5777;BME280;2914;42.668;23.346;2023-02-02T11:10:57;94378.82;;;8.66;50.97
5777;BME280;2914;42.668;23.346;2023-02-02T11:13:29;94385.05;;;8.75;49.43
5777;BME280;2914;42.668;23.346;2023-02-02T11:16:20;94385.05;;;8.75;49.43
5777;BME280;2914;42.668;23.346;2023-02-02T11:18:59;94377.02;;;8.66;49.54
5777;BME280;2914;42.668;23.346;2023-02-02T11:24:19;94366.84;;;8.68;49.53
5777;BME280;2914;42.668;23.346;2023-02-02T11:29:33;94351.70;;;8.65;49.41
5777;BME280;2914;42.668;23.346;2023-02-02T11:32:22;94356.03;;;8.61;49.83
5777;BME280;2914;42.668;23.346;2023-02-02T11:37:32;94352.38;;;8.68;49.38
5777;BME280;2914;42.668;23.346;2023-02-02T11:43:03;94322.86;;;8.70;49.26
5777;BME280;2914;42.668;23.346;2023-02-02T11:45:35;94322.07;;;8.63;48.88
5777;BME280;2914;42.668;23.346;2023-02-02T11:48:11;94319.67;;;8.76;49.10
5777;BME280;2914;42.668;23.346;2023-02-02T11:53:23;94326.17;;;8.81;49.00
5777;BME280;2914;42.668;23.346;2023-02-02T11:55:55;94326.17;;;8.81;49.00
5777;BME280;2914;42.668;23.346;2023-02-02T11:58:26;94316.75;;;8.79;49.32
5777;BME280;2914;42.668;23.346;2023-02-02T12:01:00;94318.42;;;8.80;49.26
5777;BME280;2914;42.668;23.346;2023-02-02T12:03:33;94318.42;;;8.80;49.26
5777;BME280;2914;42.668;23.346;2023-02-02T12:06:17;94299.27;;;8.83;49.75
5777;BME280;2914;42.668;23.346;2023-02-02T12:08:47;94315.13;;;8.88;49.58
5777;BME280;2914;42.668;23.346;2023-02-02T12:14:10;94315.05;;;9.03;48.48
5777;BME280;2914;42.668;23.346;2023-02-02T12:22:57;94324.19;;;9.09;48.71
5777;BME280;2914;42.668;23.346;2023-02-02T12:28:19;94327.31;;;9.08;49.19
5777;BME280;2914;42.668;23.346;2023-02-02T12:30:50;94318.28;;;9.01;49.54
5777;BME280;2914;42.668;23.346;2023-02-02T12:33:26;94317.05;;;8.95;49.89
5777;BME280;2914;42.668;23.346;2023-02-02T12:39:05;94338.70;;;8.74;48.22
5777;BME280;2914;42.668;23.346;2023-02-02T12:45:19;94331.70;;;8.69;48.24
5777;BME280;2914;42.668;23.346;2023-02-02T12:47:52;94326.80;;;8.70;47.24
5777;BME280;2914;42.668;23.346;2023-02-02T12:50:27;94312.50;;;8.53;47.44
5777;BME280;2914;42.668;23.346;2023-02-02T12:53:08;94324.83;;;8.52;47.97
5777;BME280;2914;42.668;23.346;2023-02-02T12:58:25;94318.47;;;8.55;48.39
5777;BME280;2914;42.668;23.346;2023-02-02T13:04:17;94318.86;;;8.50;48.13
5777;BME280;2914;42.668;23.346;2023-02-02T13:12:40;94315.95;;;8.38;48.36
5777;BME280;2914;42.668;23.346;2023-02-02T13:17:52;94322.53;;;8.38;48.00
5777;BME280;2914;42.668;23.346;2023-02-02T13:20:33;94327.48;;;8.31;48.13
5777;BME280;2914;42.668;23.346;2023-02-02T13:23:04;94312.65;;;8.36;48.10
5777;BME280;2914;42.668;23.346;2023-02-02T13:25:36;94330.61;;;8.30;48.18
5777;BME280;2914;42.668;23.346;2023-02-02T13:28:08;94322.20;;;8.37;48.98
5777;BME280;2914;42.668;23.346;2023-02-02T13:30:39;94319.44;;;8.38;48.65
5777;BME280;2914;42.668;23.346;2023-02-02T13:33:12;94316.81;;;8.38;49.20
5777;BME280;2914;42.668;23.346;2023-02-02T13:35:47;94316.64;;;8.45;49.17
5777;BME280;2914;42.668;23.346;2023-02-02T13:38:18;94311.61;;;8.48;49.81
5777;BME280;2914;42.668;23.346;2023-02-02T13:43:43;94299.73;;;8.38;49.44
5777;BME280;2914;42.668;23.346;2023-02-02T13:46:19;94310.90;;;8.30;48.45
5777;BME280;2914;42.668;23.346;2023-02-02T13:48:55;94301.46;;;8.18;48.01
5777;BME280;2914;42.668;23.346;2023-02-02T13:51:45;94309.39;;;8.12;48.27
5777;BME280;2914;42.668;23.346;2023-02-02T14:00:25;94307.47;;;7.99;49.34
5777;BME280;2914;42.668;23.346;2023-02-02T14:02:59;94318.02;;;8.09;49.39
5777;BME280;2914;42.668;23.346;2023-02-02T14:05:31;94304.28;;;8.11;49.69
5777;BME280;2914;42.668;23.346;2023-02-02T14:11:00;94316.45;;;8.12;51.19
5777;BME280;2914;42.668;23.346;2023-02-02T14:13:41;94320.05;;;8.11;52.05
5777;BME280;2914;42.668;23.346;2023-02-02T14:25:48;94294.23;;;7.70;59.20
5777;BME280;2914;42.668;23.346;2023-02-02T14:28:43;94302.75;;;7.62;59.11
5777;BME280;2914;42.668;23.346;2023-02-02T14:31:27;94297.03;;;7.62;59.27
5777;BME280;2914;42.668;23.346;2023-02-02T14:34:29;94312.24;;;7.53;59.72
5777;BME280;2914;42.668;23.346;2023-02-02T14:37:37;94321.93;;;7.47;60.58
5777;BME280;2914;42.668;23.346;2023-02-02T14:40:26;94331.81;;;7.34;61.61
5777;BME280;2914;42.668;23.346;2023-02-02T14:43:08;94340.90;;;7.24;63.16
5777;BME280;2914;42.668;23.346;2023-02-02T14:46:19;94336.77;;;7.16;65.58
5777;BME280;2914;42.668;23.346;2023-02-02T14:49:04;94373.52;;;7.10;67.65
5777;BME280;2914;42.668;23.346;2023-02-02T14:54:00;94426.33;;;6.61;83.36
5777;BME280;2914;42.668;23.346;2023-02-02T14:56:40;94428.26;;;6.25;91.46
5777;BME280;2914;42.668;23.346;2023-02-02T14:59:16;94453.95;;;5.98;96.00
5777;BME280;2914;42.668;23.346;2023-02-02T15:01:56;94450.96;;;5.55;99.28
5777;BME280;2914;42.668;23.346;2023-02-02T15:04:52;94459.61;;;5.20;100.00
5777;BME280;2914;42.668;23.346;2023-02-02T15:07:50;94459.61;;;5.20;100.00
5777;BME280;2914;42.668;23.346;2023-02-02T15:14:13;94495.02;;;4.57;100.00
5777;BME280;2914;42.668;23.346;2023-02-02T15:19:26;94500.86;;;4.35;100.00
5777;BME280;2914;42.668;23.346;2023-02-02T15:24:35;94527.34;;;4.11;100.00
5777;BME280;2914;42.668;23.346;2023-02-02T15:29:41;94566.17;;;4.02;100.00
5777;BME280;2914;42.668;23.346;2023-02-02T15:32:16;94552.19;;;3.90;100.00
5777;BME280;2914;42.668;23.346;2023-02-02T15:34:49;94551.81;;;3.89;100.00
5777;BME280;2914;42.668;23.346;2023-02-02T15:40:19;94559.95;;;4.31;100.00
5777;BME280;2914;42.668;23.346;2023-02-02T15:42:51;94556.30;;;4.20;100.00
5777;BME280;2914;42.668;23.346;2023-02-02T15:45:41;94553.50;;;4.03;100.00
5777;BME280;2914;42.668;23.346;2023-02-02T15:48:34;94563.02;;;3.84;100.00
5777;BME280;2914;42.668;23.346;2023-02-02T15:51:05;94565.01;;;3.81;100.00
5777;BME280;2914;42.668;23.346;2023-02-02T15:53:44;94570.16;;;3.75;100.00
5777;BME280;2914;42.668;23.346;2023-02-02T15:58:56;94576.22;;;3.96;100.00